sensor_id;sensor_type;location;lat;lon;timestamp;temperature;humidity
68813;DHT22;55808;48.112;11.552;2022-07-23T00:00:15;24.00;99.90
68813;DHT22;55808;48.112;11.552;2022-07-23T00:02:43;24.00;99.90
68813;DHT22;55808;48.112;11.552;2022-07-23T00:05:09;24.00;99.90
68813;DHT22;55808;48.112;11.552;2022-07-23T00:07:35;24.00;99.90
68813;DHT22;55808;48.112;11.552;2022-07-23T00:10:02;23.90;99.90
68813;DHT22;55808;48.112;11.552;2022-07-23T00:12:28;23.80;99.90
68813;DHT22;55808;48.112;11.552;2022-07-23T00:14:53;23.70;99.90
68813;DHT22;55808;48.112;11.552;2022-07-23T00:17:19;23.70;99.90
68813;DHT22;55808;48.112;11.552;2022-07-23T00:19:45;23.80;99.90
68813;DHT22;55808;48.112;11.552;2022-07-23T00:22:10;23.80;99.90
68813;DHT22;55808;48.112;11.552;2022-07-23T00:24:36;23.70;99.90
68813;DHT22;55808;48.112;11.552;2022-07-23T00:27:02;23.70;99.90
68813;DHT22;55808;48.112;11.552;2022-07-23T00:29:28;23.60;99.90
68813;DHT22;55808;48.112;11.552;2022-07-23T00:31:53;23.60;99.90
68813;DHT22;55808;48.112;11.552;2022-07-23T00:34:19;23.70;99.90
68813;DHT22;55808;48.112;11.552;2022-07-23T00:36:45;23.70;99.90
68813;DHT22;55808;48.112;11.552;2022-07-23T00:39:10;23.60;99.40
68813;DHT22;55808;48.112;11.552;2022-07-23T00:41:36;23.60;99.50
68813;DHT22;55808;48.112;11.552;2022-07-23T00:44:19;23.50;99.00
68813;DHT22;55808;48.112;11.552;2022-07-23T00:46:48;23.40;98.00
68813;DHT22;55808;48.112;11.552;2022-07-23T00:49:14;23.40;96.90
68813;DHT22;55808;48.112;11.552;2022-07-23T00:51:41;23.60;96.50
68813;DHT22;55808;48.112;11.552;2022-07-23T00:54:07;23.60;96.30
68813;DHT22;55808;48.112;11.552;2022-07-23T00:56:33;23.50;96.60
68813;DHT22;55808;48.112;11.552;2022-07-23T00:59:00;23.40;96.60
68813;DHT22;55808;48.112;11.552;2022-07-23T01:01:26;23.40;96.10
68813;DHT22;55808;48.112;11.552;2022-07-23T01:03:52;23.50;95.90
68813;DHT22;55808;48.112;11.552;2022-07-23T01:06:17;23.50;95.80
68813;DHT22;55808;48.112;11.552;2022-07-23T01:08:43;23.50;95.80
68813;DHT22;55808;48.112;11.552;2022-07-23T01:11:09;23.40;95.70
68813;DHT22;55808;48.112;11.552;2022-07-23T01:13:35;23.40;96.10
68813;DHT22;55808;48.112;11.552;2022-07-23T01:16:00;23.40;96.50
68813;DHT22;55808;48.112;11.552;2022-07-23T01:18:26;23.40;97.00
68813;DHT22;55808;48.112;11.552;2022-07-23T01:20:51;23.50;97.70
68813;DHT22;55808;48.112;11.552;2022-07-23T01:23:17;23.60;97.30
68813;DHT22;55808;48.112;11.552;2022-07-23T01:25:52;23.50;95.70
68813;DHT22;55808;48.112;11.552;2022-07-23T01:28:18;23.40;94.30
68813;DHT22;55808;48.112;11.552;2022-07-23T01:30:44;23.00;92.20
68813;DHT22;55808;48.112;11.552;2022-07-23T01:33:10;22.20;92.80
68813;DHT22;55808;48.112;11.552;2022-07-23T01:35:35;21.60;94.90
68813;DHT22;55808;48.112;11.552;2022-07-23T01:38:01;21.40;94.30
68813;DHT22;55808;48.112;11.552;2022-07-23T01:40:27;21.30;93.90
68813;DHT22;55808;48.112;11.552;2022-07-23T01:42:52;21.00;96.40
68813;DHT22;55808;48.112;11.552;2022-07-23T01:45:18;20.60;99.80
68813;DHT22;55808;48.112;11.552;2022-07-23T01:47:44;20.70;99.90
68813;DHT22;55808;48.112;11.552;2022-07-23T01:50:10;20.60;99.90
68813;DHT22;55808;48.112;11.552;2022-07-23T01:52:35;20.50;99.90
68813;DHT22;55808;48.112;11.552;2022-07-23T01:55:01;20.40;99.90
68813;DHT22;55808;48.112;11.552;2022-07-23T01:57:27;20.20;99.90
68813;DHT22;55808;48.112;11.552;2022-07-23T01:59:53;20.30;99.90
68813;DHT22;55808;48.112;11.552;2022-07-23T02:02:19;20.20;99.90
68813;DHT22;55808;48.112;11.552;2022-07-23T02:04:44;20.30;99.90
68813;DHT22;55808;48.112;11.552;2022-07-23T02:07:10;20.40;99.90
68813;DHT22;55808;48.112;11.552;2022-07-23T02:09:36;19.80;99.90
68813;DHT22;55808;48.112;11.552;2022-07-23T02:12:02;19.70;99.90
68813;DHT22;55808;48.112;11.552;2022-07-23T02:14:27;19.50;99.90
68813;DHT22;55808;48.112;11.552;2022-07-23T02:16:53;19.50;99.90
68813;DHT22;55808;48.112;11.552;2022-07-23T02:19:19;19.50;99.90
68813;DHT22;55808;48.112;11.552;2022-07-23T02:21:45;19.40;99.90
68813;DHT22;55808;48.112;11.552;2022-07-23T02:24:11;19.30;99.90
68813;DHT22;55808;48.112;11.552;2022-07-23T02:26:36;19.30;99.90
68813;DHT22;55808;48.112;11.552;2022-07-23T02:29:03;19.30;99.90
68813;DHT22;55808;48.112;11.552;2022-07-23T02:31:30;19.30;99.90
68813;DHT22;55808;48.112;11.552;2022-07-23T02:33:56;19.20;99.90
68813;DHT22;55808;48.112;11.552;2022-07-23T02:36:22;19.20;99.90
68813;DHT22;55808;48.112;11.552;2022-07-23T02:38:48;19.20;99.90
68813;DHT22;55808;48.112;11.552;2022-07-23T02:41:14;19.20;99.90
68813;DHT22;55808;48.112;11.552;2022-07-23T02:43:39;19.30;99.90
68813;DHT22;55808;48.112;11.552;2022-07-23T02:46:05;19.10;99.90
68813;DHT22;55808;48.112;11.552;2022-07-23T02:48:31;19.20;99.90
68813;DHT22;55808;48.112;11.552;2022-07-23T02:50:57;19.40;99.90
68813;DHT22;55808;48.112;11.552;2022-07-23T02:53:23;19.40;99.90
68813;DHT22;55808;48.112;11.552;2022-07-23T02:55:48;19.40;99.90
68813;DHT22;55808;48.112;11.552;2022-07-23T02:58:14;19.20;99.90
68813;DHT22;55808;48.112;11.552;2022-07-23T03:00:40;18.50;99.90
68813;DHT22;55808;48.112;11.552;2022-07-23T03:03:06;18.20;99.90
68813;DHT22;55808;48.112;11.552;2022-07-23T03:05:33;18.20;99.90
68813;DHT22;55808;48.112;11.552;2022-07-23T03:07:59;18.30;99.90
68813;DHT22;55808;48.112;11.552;2022-07-23T03:10:24;18.20;99.90
68813;DHT22;55808;48.112;11.552;2022-07-23T03:12:50;18.20;99.90
68813;DHT22;55808;48.112;11.552;2022-07-23T03:15:16;18.20;99.90
68813;DHT22;55808;48.112;11.552;2022-07-23T03:17:42;18.30;99.90
68813;DHT22;55808;48.112;11.552;2022-07-23T03:20:08;18.40;99.90
68813;DHT22;55808;48.112;11.552;2022-07-23T03:22:34;18.50;99.90
68813;DHT22;55808;48.112;11.552;2022-07-23T03:24:59;18.40;99.90
68813;DHT22;55808;48.112;11.552;2022-07-23T03:27:27;18.50;99.90
68813;DHT22;55808;48.112;11.552;2022-07-23T03:29:55;18.60;99.90
68813;DHT22;55808;48.112;11.552;2022-07-23T03:32:22;18.60;99.90
68813;DHT22;55808;48.112;11.552;2022-07-23T03:34:48;18.60;99.90
68813;DHT22;55808;48.112;11.552;2022-07-23T03:37:14;18.60;99.90
68813;DHT22;55808;48.112;11.552;2022-07-23T03:39:40;18.70;99.90
68813;DHT22;55808;48.112;11.552;2022-07-23T03:42:06;18.70;99.90
68813;DHT22;55808;48.112;11.552;2022-07-23T03:44:31;18.60;99.90
68813;DHT22;55808;48.112;11.552;2022-07-23T03:46:58;18.60;99.90
68813;DHT22;55808;48.112;11.552;2022-07-23T03:49:23;18.50;99.90
68813;DHT22;55808;48.112;11.552;2022-07-23T03:51:49;18.40;99.90
68813;DHT22;55808;48.112;11.552;2022-07-23T03:54:15;18.50;99.90
68813;DHT22;55808;48.112;11.552;2022-07-23T03:56:41;18.20;99.90
68813;DHT22;55808;48.112;11.552;2022-07-23T03:59:08;18.30;99.90
68813;DHT22;55808;48.112;11.552;2022-07-23T04:01:34;18.30;99.90
68813;DHT22;55808;48.112;11.552;2022-07-23T04:04:00;18.30;99.90
68813;DHT22;55808;48.112;11.552;2022-07-23T04:06:25;18.50;99.90
68813;DHT22;55808;48.112;11.552;2022-07-23T04:08:51;18.50;99.90
68813;DHT22;55808;48.112;11.552;2022-07-23T04:11:16;18.60;99.90
68813;DHT22;55808;48.112;11.552;2022-07-23T04:13:42;18.60;99.90
68813;DHT22;55808;48.112;11.552;2022-07-23T04:16:08;18.70;99.90
68813;DHT22;55808;48.112;11.552;2022-07-23T04:18:33;18.80;99.90
68813;DHT22;55808;48.112;11.552;2022-07-23T04:20:59;18.80;99.90
68813;DHT22;55808;48.112;11.552;2022-07-23T04:23:25;18.80;99.90
68813;DHT22;55808;48.112;11.552;2022-07-23T04:25:50;18.90;99.90
68813;DHT22;55808;48.112;11.552;2022-07-23T04:28:16;19.00;99.90
68813;DHT22;55808;48.112;11.552;2022-07-23T04:30:42;19.10;99.90
68813;DHT22;55808;48.112;11.552;2022-07-23T04:33:07;19.20;99.90
68813;DHT22;55808;48.112;11.552;2022-07-23T04:35:34;19.10;99.90
68813;DHT22;55808;48.112;11.552;2022-07-23T04:38:00;19.20;99.90
68813;DHT22;55808;48.112;11.552;2022-07-23T04:40:26;19.10;99.90
68813;DHT22;55808;48.112;11.552;2022-07-23T04:42:52;19.20;99.90
68813;DHT22;55808;48.112;11.552;2022-07-23T04:45:18;19.20;99.90
68813;DHT22;55808;48.112;11.552;2022-07-23T04:47:44;19.10;99.90
68813;DHT22;55808;48.112;11.552;2022-07-23T04:50:09;19.20;99.90
68813;DHT22;55808;48.112;11.552;2022-07-23T04:52:35;19.20;99.90
68813;DHT22;55808;48.112;11.552;2022-07-23T04:55:01;19.20;99.90
68813;DHT22;55808;48.112;11.552;2022-07-23T04:57:27;19.30;99.90
68813;DHT22;55808;48.112;11.552;2022-07-23T04:59:52;19.30;99.90
68813;DHT22;55808;48.112;11.552;2022-07-23T05:02:18;19.30;99.90
68813;DHT22;55808;48.112;11.552;2022-07-23T05:04:44;19.40;99.90
68813;DHT22;55808;48.112;11.552;2022-07-23T05:07:09;19.40;99.90
68813;DHT22;55808;48.112;11.552;2022-07-23T05:09:35;19.40;99.90
68813;DHT22;55808;48.112;11.552;2022-07-23T05:12:01;19.40;99.90
68813;DHT22;55808;48.112;11.552;2022-07-23T05:14:26;19.50;99.90
68813;DHT22;55808;48.112;11.552;2022-07-23T05:16:53;19.50;99.90
68813;DHT22;55808;48.112;11.552;2022-07-23T05:19:19;19.50;99.90
68813;DHT22;55808;48.112;11.552;2022-07-23T05:21:44;19.60;99.90
68813;DHT22;55808;48.112;11.552;2022-07-23T05:24:10;19.70;99.90
68813;DHT22;55808;48.112;11.552;2022-07-23T05:26:36;19.80;99.90
68813;DHT22;55808;48.112;11.552;2022-07-23T05:29:01;19.70;99.90
68813;DHT22;55808;48.112;11.552;2022-07-23T05:31:27;19.60;99.90
68813;DHT22;55808;48.112;11.552;2022-07-23T05:33:53;19.60;99.90
68813;DHT22;55808;48.112;11.552;2022-07-23T05:36:18;19.50;99.90
68813;DHT22;55808;48.112;11.552;2022-07-23T05:38:44;19.50;99.90
68813;DHT22;55808;48.112;11.552;2022-07-23T05:41:10;19.50;99.90
68813;DHT22;55808;48.112;11.552;2022-07-23T05:43:35;19.40;99.90
68813;DHT22;55808;48.112;11.552;2022-07-23T05:46:01;19.60;99.90
68813;DHT22;55808;48.112;11.552;2022-07-23T05:48:27;19.70;99.90
68813;DHT22;55808;48.112;11.552;2022-07-23T05:50:52;19.80;99.90
68813;DHT22;55808;48.112;11.552;2022-07-23T05:53:18;19.90;99.90
68813;DHT22;55808;48.112;11.552;2022-07-23T05:55:44;19.90;99.90
68813;DHT22;55808;48.112;11.552;2022-07-23T05:58:10;19.90;99.90
68813;DHT22;55808;48.112;11.552;2022-07-23T06:00:35;19.80;99.90
68813;DHT22;55808;48.112;11.552;2022-07-23T06:03:01;19.70;99.90
68813;DHT22;55808;48.112;11.552;2022-07-23T06:05:27;19.60;99.90
68813;DHT22;55808;48.112;11.552;2022-07-23T06:07:52;19.70;99.90
68813;DHT22;55808;48.112;11.552;2022-07-23T06:10:18;19.70;99.90
68813;DHT22;55808;48.112;11.552;2022-07-23T06:12:44;19.70;99.90
68813;DHT22;55808;48.112;11.552;2022-07-23T06:15:10;19.60;99.90
68813;DHT22;55808;48.112;11.552;2022-07-23T06:17:37;19.40;99.90
68813;DHT22;55808;48.112;11.552;2022-07-23T06:20:08;19.20;99.90
68813;DHT22;55808;48.112;11.552;2022-07-23T06:22:35;19.30;99.90
68813;DHT22;55808;48.112;11.552;2022-07-23T06:25:01;19.30;99.90
68813;DHT22;55808;48.112;11.552;2022-07-23T06:27:26;19.20;99.90
68813;DHT22;55808;48.112;11.552;2022-07-23T06:29:52;19.20;99.90
68813;DHT22;55808;48.112;11.552;2022-07-23T06:32:18;19.20;99.90
68813;DHT22;55808;48.112;11.552;2022-07-23T06:34:44;19.30;99.90
68813;DHT22;55808;48.112;11.552;2022-07-23T06:37:09;19.40;99.90
68813;DHT22;55808;48.112;11.552;2022-07-23T06:39:35;19.20;99.90
68813;DHT22;55808;48.112;11.552;2022-07-23T06:42:01;19.20;99.90
68813;DHT22;55808;48.112;11.552;2022-07-23T06:44:27;19.20;99.90
68813;DHT22;55808;48.112;11.552;2022-07-23T06:46:52;19.30;99.90
68813;DHT22;55808;48.112;11.552;2022-07-23T06:49:18;19.20;99.90
68813;DHT22;55808;48.112;11.552;2022-07-23T06:51:44;19.30;99.90
68813;DHT22;55808;48.112;11.552;2022-07-23T06:54:11;19.20;99.90
68813;DHT22;55808;48.112;11.552;2022-07-23T06:56:37;19.20;99.90
68813;DHT22;55808;48.112;11.552;2022-07-23T06:59:03;19.30;99.90
68813;DHT22;55808;48.112;11.552;2022-07-23T07:01:29;19.60;99.90
68813;DHT22;55808;48.112;11.552;2022-07-23T07:03:54;19.70;99.90
68813;DHT22;55808;48.112;11.552;2022-07-23T07:06:20;19.70;99.90
68813;DHT22;55808;48.112;11.552;2022-07-23T07:08:46;19.70;99.90
68813;DHT22;55808;48.112;11.552;2022-07-23T07:11:11;19.70;99.90
68813;DHT22;55808;48.112;11.552;2022-07-23T07:13:38;19.70;99.90
68813;DHT22;55808;48.112;11.552;2022-07-23T07:16:04;19.80;99.90
68813;DHT22;55808;48.112;11.552;2022-07-23T07:18:30;19.90;99.90
68813;DHT22;55808;48.112;11.552;2022-07-23T07:20:56;20.00;99.90
68813;DHT22;55808;48.112;11.552;2022-07-23T07:23:23;20.10;99.90
68813;DHT22;55808;48.112;11.552;2022-07-23T07:25:48;20.10;99.90
68813;DHT22;55808;48.112;11.552;2022-07-23T07:28:14;20.20;99.90
68813;DHT22;55808;48.112;11.552;2022-07-23T07:30:39;20.20;99.90
68813;DHT22;55808;48.112;11.552;2022-07-23T07:33:05;20.30;99.90
68813;DHT22;55808;48.112;11.552;2022-07-23T07:35:31;20.30;99.90
68813;DHT22;55808;48.112;11.552;2022-07-23T07:37:58;20.20;99.90
68813;DHT22;55808;48.112;11.552;2022-07-23T07:40:24;20.20;99.90
68813;DHT22;55808;48.112;11.552;2022-07-23T07:42:52;20.30;99.90
68813;DHT22;55808;48.112;11.552;2022-07-23T07:45:22;20.20;99.90
68813;DHT22;55808;48.112;11.552;2022-07-23T07:47:48;20.20;99.90
68813;DHT22;55808;48.112;11.552;2022-07-23T07:50:14;20.40;99.90
68813;DHT22;55808;48.112;11.552;2022-07-23T07:52:39;20.40;99.90
68813;DHT22;55808;48.112;11.552;2022-07-23T07:55:07;20.50;99.90
68813;DHT22;55808;48.112;11.552;2022-07-23T07:57:33;20.50;99.90
68813;DHT22;55808;48.112;11.552;2022-07-23T07:59:59;20.50;99.90
68813;DHT22;55808;48.112;11.552;2022-07-23T08:02:25;20.50;99.90
68813;DHT22;55808;48.112;11.552;2022-07-23T08:04:51;20.50;99.90
68813;DHT22;55808;48.112;11.552;2022-07-23T08:07:16;20.50;99.90
68813;DHT22;55808;48.112;11.552;2022-07-23T08:09:42;20.60;99.90
68813;DHT22;55808;48.112;11.552;2022-07-23T08:12:08;20.50;99.90
68813;DHT22;55808;48.112;11.552;2022-07-23T08:14:34;20.70;99.90
68813;DHT22;55808;48.112;11.552;2022-07-23T08:16:59;20.80;99.90
68813;DHT22;55808;48.112;11.552;2022-07-23T08:19:25;20.80;99.90
68813;DHT22;55808;48.112;11.552;2022-07-23T08:21:50;20.80;99.90
68813;DHT22;55808;48.112;11.552;2022-07-23T08:24:16;20.90;99.90
68813;DHT22;55808;48.112;11.552;2022-07-23T08:26:42;20.90;99.90
68813;DHT22;55808;48.112;11.552;2022-07-23T08:29:08;20.90;99.90
68813;DHT22;55808;48.112;11.552;2022-07-23T08:31:33;21.00;99.90
68813;DHT22;55808;48.112;11.552;2022-07-23T08:33:59;21.00;99.90
68813;DHT22;55808;48.112;11.552;2022-07-23T08:36:25;21.10;99.90
68813;DHT22;55808;48.112;11.552;2022-07-23T08:38:53;21.20;99.90
68813;DHT22;55808;48.112;11.552;2022-07-23T08:41:20;21.40;99.90
68813;DHT22;55808;48.112;11.552;2022-07-23T08:43:46;21.40;99.90
68813;DHT22;55808;48.112;11.552;2022-07-23T08:46:13;21.40;99.90
68813;DHT22;55808;48.112;11.552;2022-07-23T08:48:39;21.50;99.90
68813;DHT22;55808;48.112;11.552;2022-07-23T08:51:06;21.50;99.90
68813;DHT22;55808;48.112;11.552;2022-07-23T08:53:33;21.60;99.90
68813;DHT22;55808;48.112;11.552;2022-07-23T08:56:02;21.50;99.90
68813;DHT22;55808;48.112;11.552;2022-07-23T08:58:29;21.50;99.90
68813;DHT22;55808;48.112;11.552;2022-07-23T09:00:56;21.60;99.90
68813;DHT22;55808;48.112;11.552;2022-07-23T09:03:33;21.60;99.90
68813;DHT22;55808;48.112;11.552;2022-07-23T09:05:59;21.60;99.90
68813;DHT22;55808;48.112;11.552;2022-07-23T09:08:43;21.60;99.90
68813;DHT22;55808;48.112;11.552;2022-07-23T09:11:16;21.60;99.90
68813;DHT22;55808;48.112;11.552;2022-07-23T09:13:52;21.70;99.90
68813;DHT22;55808;48.112;11.552;2022-07-23T09:16:23;21.80;99.90
68813;DHT22;55808;48.112;11.552;2022-07-23T09:18:51;21.90;99.90
68813;DHT22;55808;48.112;11.552;2022-07-23T09:26:24;22.10;99.90
68813;DHT22;55808;48.112;11.552;2022-07-23T09:28:53;22.20;99.90
68813;DHT22;55808;48.112;11.552;2022-07-23T09:31:19;22.30;99.90
68813;DHT22;55808;48.112;11.552;2022-07-23T09:33:45;22.60;99.90
68813;DHT22;55808;48.112;11.552;2022-07-23T09:36:11;22.70;99.90
68813;DHT22;55808;48.112;11.552;2022-07-23T09:38:48;22.70;99.90
68813;DHT22;55808;48.112;11.552;2022-07-23T09:41:14;22.90;99.90
68813;DHT22;55808;48.112;11.552;2022-07-23T09:43:40;23.00;99.90
68813;DHT22;55808;48.112;11.552;2022-07-23T09:46:25;22.90;99.90
68813;DHT22;55808;48.112;11.552;2022-07-23T09:48:52;23.00;99.90
68813;DHT22;55808;48.112;11.552;2022-07-23T09:51:18;23.20;99.90
68813;DHT22;55808;48.112;11.552;2022-07-23T09:54:05;23.50;99.90
68813;DHT22;55808;48.112;11.552;2022-07-23T09:56:33;23.80;99.90
68813;DHT22;55808;48.112;11.552;2022-07-23T09:59:01;24.30;99.90
68813;DHT22;55808;48.112;11.552;2022-07-23T10:01:36;24.40;99.90
68813;DHT22;55808;48.112;11.552;2022-07-23T10:04:03;24.50;99.90
68813;DHT22;55808;48.112;11.552;2022-07-23T10:06:29;24.60;99.90
68813;DHT22;55808;48.112;11.552;2022-07-23T10:08:58;24.80;99.90
68813;DHT22;55808;48.112;11.552;2022-07-23T10:11:26;25.00;99.90
68813;DHT22;55808;48.112;11.552;2022-07-23T10:13:54;25.10;98.00
68813;DHT22;55808;48.112;11.552;2022-07-23T10:16:21;25.20;96.90
68813;DHT22;55808;48.112;11.552;2022-07-23T10:18:47;25.20;96.80
68813;DHT22;55808;48.112;11.552;2022-07-23T10:21:27;25.30;97.30
68813;DHT22;55808;48.112;11.552;2022-07-23T10:27:02;25.10;96.90
68813;DHT22;55808;48.112;11.552;2022-07-23T10:29:46;25.30;94.30
68813;DHT22;55808;48.112;11.552;2022-07-23T10:35:05;25.50;93.50
68813;DHT22;55808;48.112;11.552;2022-07-23T10:37:38;25.80;93.30
68813;DHT22;55808;48.112;11.552;2022-07-23T10:40:19;25.80;92.40
68813;DHT22;55808;48.112;11.552;2022-07-23T10:42:48;25.60;93.00
68813;DHT22;55808;48.112;11.552;2022-07-23T10:45:31;25.50;91.00
68813;DHT22;55808;48.112;11.552;2022-07-23T10:48:18;25.30;89.40
68813;DHT22;55808;48.112;11.552;2022-07-23T10:51:06;25.30;89.70
68813;DHT22;55808;48.112;11.552;2022-07-23T10:56:17;25.30;89.50
68813;DHT22;55808;48.112;11.552;2022-07-23T10:58:48;25.60;87.50
68813;DHT22;55808;48.112;11.552;2022-07-23T11:01:34;25.70;86.80
68813;DHT22;55808;48.112;11.552;2022-07-23T11:04:00;25.80;88.00
68813;DHT22;55808;48.112;11.552;2022-07-23T11:09:46;25.20;89.70
68813;DHT22;55808;48.112;11.552;2022-07-23T11:17:23;25.00;89.80
68813;DHT22;55808;48.112;11.552;2022-07-23T11:22:38;24.90;91.10
68813;DHT22;55808;48.112;11.552;2022-07-23T11:25:04;24.80;92.50
68813;DHT22;55808;48.112;11.552;2022-07-23T11:30:03;24.70;92.00
68813;DHT22;55808;48.112;11.552;2022-07-23T11:32:32;24.60;92.40
68813;DHT22;55808;48.112;11.552;2022-07-23T11:34:59;24.60;92.20
68813;DHT22;55808;48.112;11.552;2022-07-23T11:37:39;24.60;92.10
68813;DHT22;55808;48.112;11.552;2022-07-23T11:40:11;24.50;92.80
68813;DHT22;55808;48.112;11.552;2022-07-23T11:42:39;24.40;92.40
68813;DHT22;55808;48.112;11.552;2022-07-23T11:45:09;24.30;92.20
68813;DHT22;55808;48.112;11.552;2022-07-23T11:47:35;24.30;92.40
68813;DHT22;55808;48.112;11.552;2022-07-23T11:50:04;24.30;92.90
68813;DHT22;55808;48.112;11.552;2022-07-23T11:52:31;24.20;92.60
68813;DHT22;55808;48.112;11.552;2022-07-23T11:55:00;24.20;93.10
68813;DHT22;55808;48.112;11.552;2022-07-23T11:57:35;24.10;93.20
68813;DHT22;55808;48.112;11.552;2022-07-23T12:00:09;24.20;93.00
68813;DHT22;55808;48.112;11.552;2022-07-23T12:02:39;24.10;93.20
68813;DHT22;55808;48.112;11.552;2022-07-23T12:05:06;24.10;93.90
68813;DHT22;55808;48.112;11.552;2022-07-23T12:07:38;24.00;94.20
68813;DHT22;55808;48.112;11.552;2022-07-23T12:12:43;24.00;94.70
68813;DHT22;55808;48.112;11.552;2022-07-23T12:15:13;24.00;94.80
68813;DHT22;55808;48.112;11.552;2022-07-23T12:17:42;24.10;95.30
68813;DHT22;55808;48.112;11.552;2022-07-23T12:20:10;24.10;95.20
68813;DHT22;55808;48.112;11.552;2022-07-23T12:22:42;24.10;95.70
68813;DHT22;55808;48.112;11.552;2022-07-23T12:25:17;24.10;95.60
68813;DHT22;55808;48.112;11.552;2022-07-23T12:27:43;24.00;96.10
68813;DHT22;55808;48.112;11.552;2022-07-23T12:30:19;24.10;96.00
68813;DHT22;55808;48.112;11.552;2022-07-23T12:32:48;24.00;96.20
68813;DHT22;55808;48.112;11.552;2022-07-23T12:35:14;24.00;96.50
68813;DHT22;55808;48.112;11.552;2022-07-23T12:37:41;24.00;96.00
68813;DHT22;55808;48.112;11.552;2022-07-23T12:40:30;24.00;95.90
68813;DHT22;55808;48.112;11.552;2022-07-23T12:43:00;23.90;96.10
68813;DHT22;55808;48.112;11.552;2022-07-23T12:45:28;23.80;96.60
68813;DHT22;55808;48.112;11.552;2022-07-23T12:48:00;23.80;97.10
68813;DHT22;55808;48.112;11.552;2022-07-23T12:53:19;23.70;96.80
68813;DHT22;55808;48.112;11.552;2022-07-23T12:55:46;23.60;96.70
68813;DHT22;55808;48.112;11.552;2022-07-23T12:58:15;23.70;96.80
68813;DHT22;55808;48.112;11.552;2022-07-23T13:01:03;23.60;97.40
68813;DHT22;55808;48.112;11.552;2022-07-23T13:03:34;23.70;97.40
68813;DHT22;55808;48.112;11.552;2022-07-23T13:06:02;23.80;96.60
68813;DHT22;55808;48.112;11.552;2022-07-23T13:08:29;23.80;97.00
68813;DHT22;55808;48.112;11.552;2022-07-23T13:10:56;23.80;96.30
68813;DHT22;55808;48.112;11.552;2022-07-23T13:13:24;23.80;96.80
68813;DHT22;55808;48.112;11.552;2022-07-23T13:15:51;23.90;97.20
68813;DHT22;55808;48.112;11.552;2022-07-23T13:18:17;23.90;97.20
68813;DHT22;55808;48.112;11.552;2022-07-23T13:20:45;23.90;97.10
68813;DHT22;55808;48.112;11.552;2022-07-23T13:23:11;23.80;97.10
68813;DHT22;55808;48.112;11.552;2022-07-23T13:25:37;23.70;97.70
68813;DHT22;55808;48.112;11.552;2022-07-23T13:28:03;23.70;98.00
68813;DHT22;55808;48.112;11.552;2022-07-23T13:30:29;23.60;98.60
68813;DHT22;55808;48.112;11.552;2022-07-23T13:32:54;23.60;98.80
68813;DHT22;55808;48.112;11.552;2022-07-23T13:35:20;23.60;99.20
68813;DHT22;55808;48.112;11.552;2022-07-23T13:37:46;23.60;99.10
68813;DHT22;55808;48.112;11.552;2022-07-23T13:40:12;23.60;99.10
68813;DHT22;55808;48.112;11.552;2022-07-23T13:42:38;23.80;99.30
68813;DHT22;55808;48.112;11.552;2022-07-23T13:45:05;24.00;98.70
68813;DHT22;55808;48.112;11.552;2022-07-23T13:47:31;24.20;97.50
68813;DHT22;55808;48.112;11.552;2022-07-23T13:49:57;24.10;97.80
68813;DHT22;55808;48.112;11.552;2022-07-23T13:52:22;24.00;97.60
68813;DHT22;55808;48.112;11.552;2022-07-23T13:54:49;24.00;98.10
68813;DHT22;55808;48.112;11.552;2022-07-23T13:57:15;23.80;98.50
68813;DHT22;55808;48.112;11.552;2022-07-23T13:59:40;23.80;98.00
68813;DHT22;55808;48.112;11.552;2022-07-23T14:02:07;23.80;98.80
68813;DHT22;55808;48.112;11.552;2022-07-23T14:04:33;23.80;98.40
68813;DHT22;55808;48.112;11.552;2022-07-23T14:06:59;23.80;98.60
68813;DHT22;55808;48.112;11.552;2022-07-23T14:09:25;23.80;98.60
68813;DHT22;55808;48.112;11.552;2022-07-23T14:11:51;23.60;99.90
68813;DHT22;55808;48.112;11.552;2022-07-23T14:14:17;23.20;99.90
68813;DHT22;55808;48.112;11.552;2022-07-23T14:16:43;23.10;99.90
68813;DHT22;55808;48.112;11.552;2022-07-23T14:19:10;23.10;99.90
68813;DHT22;55808;48.112;11.552;2022-07-23T14:21:36;23.10;99.90
68813;DHT22;55808;48.112;11.552;2022-07-23T14:24:02;23.20;99.90
68813;DHT22;55808;48.112;11.552;2022-07-23T14:26:28;23.20;99.90
68813;DHT22;55808;48.112;11.552;2022-07-23T14:28:54;23.20;99.90
68813;DHT22;55808;48.112;11.552;2022-07-23T14:31:19;23.30;99.90
68813;DHT22;55808;48.112;11.552;2022-07-23T14:33:45;23.40;99.90
68813;DHT22;55808;48.112;11.552;2022-07-23T14:36:11;23.40;99.90
68813;DHT22;55808;48.112;11.552;2022-07-23T14:38:36;23.50;99.90
68813;DHT22;55808;48.112;11.552;2022-07-23T14:41:02;23.60;99.90
68813;DHT22;55808;48.112;11.552;2022-07-23T14:43:32;23.60;99.90
68813;DHT22;55808;48.112;11.552;2022-07-23T14:45:58;23.60;99.90
68813;DHT22;55808;48.112;11.552;2022-07-23T14:48:24;23.60;99.90
68813;DHT22;55808;48.112;11.552;2022-07-23T14:50:49;23.60;99.90
68813;DHT22;55808;48.112;11.552;2022-07-23T14:53:15;24.10;99.90
68813;DHT22;55808;48.112;11.552;2022-07-23T14:55:40;24.30;99.90
68813;DHT22;55808;48.112;11.552;2022-07-23T14:58:06;24.40;99.80
68813;DHT22;55808;48.112;11.552;2022-07-23T15:00:32;24.50;99.90
68813;DHT22;55808;48.112;11.552;2022-07-23T15:02:58;24.20;99.50
68813;DHT22;55808;48.112;11.552;2022-07-23T15:05:23;24.20;99.90
68813;DHT22;55808;48.112;11.552;2022-07-23T15:07:49;24.20;99.90
68813;DHT22;55808;48.112;11.552;2022-07-23T15:10:15;24.30;99.90
68813;DHT22;55808;48.112;11.552;2022-07-23T15:12:41;24.30;99.90
68813;DHT22;55808;48.112;11.552;2022-07-23T15:15:07;24.30;99.90
68813;DHT22;55808;48.112;11.552;2022-07-23T15:17:33;24.50;99.90
68813;DHT22;55808;48.112;11.552;2022-07-23T15:19:59;24.80;99.00
68813;DHT22;55808;48.112;11.552;2022-07-23T15:22:24;25.00;97.90
68813;DHT22;55808;48.112;11.552;2022-07-23T15:24:50;25.20;98.10
68813;DHT22;55808;48.112;11.552;2022-07-23T15:27:15;25.50;97.80
68813;DHT22;55808;48.112;11.552;2022-07-23T15:29:44;25.20;99.20
68813;DHT22;55808;48.112;11.552;2022-07-23T15:32:10;25.30;97.40
68813;DHT22;55808;48.112;11.552;2022-07-23T15:34:38;25.30;96.90
68813;DHT22;55808;48.112;11.552;2022-07-23T15:37:04;25.40;97.10
68813;DHT22;55808;48.112;11.552;2022-07-23T15:39:32;25.60;96.70
68813;DHT22;55808;48.112;11.552;2022-07-23T15:42:00;25.50;96.10
68813;DHT22;55808;48.112;11.552;2022-07-23T15:44:26;25.70;96.10
68813;DHT22;55808;48.112;11.552;2022-07-23T15:46:52;25.90;95.30